Time;durP1;ratioP1;P1;durP2;ratioP2;P2;SDS_P1;SDS_P2;PMS_P1;PMS_P2;Temp;Humidity;BMP_temperature;BMP_pressure;BME280_temperature;BME280_humidity;BME280_pressure;Samples;Min_cycle;Max_cycle;Signal;HPM_P1;HPM_P2
2023/10/10 00:02:28;;;;;;;10.45;3.80;;;;;;;;;;5099557;27;20611;-79
2023/10/10 00:04:56;;;;;;;8.77;3.78;;;;;;;;;;5110471;27;20208;-80
2023/10/10 00:07:27;;;;;;;13.00;3.75;;;;;;;;;;5103170;28;20216;-79
2023/10/10 00:09:56;;;;;;;17.02;4.35;;;;;;;;;;5107586;27;20241;-79
2023/10/10 00:12:26;;;;;;;10.23;3.90;;;;;;;;;;5106536;28;20200;-79
2023/10/10 00:14:57;;;;;;;10.77;4.97;;;;;;;;;;5100577;28;20204;-80
2023/10/10 00:17:34;;;;;;;12.63;5.18;;;;;;;;;;5105124;28;20286;-79
2023/10/10 00:22:49;;;;;;;11.57;3.85;;;;;;;;;;5104347;28;20249;-78
2023/10/10 00:25:19;;;;;;;11.53;4.27;;;;;;;;;;5100058;28;20224;-80
2023/10/10 00:27:48;;;;;;;14.30;4.67;;;;;;;;;;5100900;28;20243;-78
2023/10/10 00:30:16;;;;;;;11.85;5.05;;;;;;;;;;5103432;28;20200;-78
2023/10/10 00:32:46;;;;;;;11.18;5.50;;;;;;;;;;5107936;28;20261;-79
2023/10/10 00:35:17;;;;;;;15.80;5.07;;;;;;;;;;5104970;28;20295;-77
2023/10/10 00:37:45;;;;;;;10.48;4.15;;;;;;;;;;5105009;27;20223;-78
2023/10/10 00:40:19;;;;;;;11.25;4.10;;;;;;;;;;5089791;28;20216;-79
2023/10/10 00:42:52;;;;;;;10.20;4.40;;;;;;;;;;5099279;28;20573;-78
2023/10/10 00:45:21;;;;;;;9.00;4.07;;;;;;;;;;5101042;28;20680;-79
2023/10/10 00:47:52;;;;;;;13.88;4.45;;;;;;;;;;5109740;28;20225;-79
2023/10/10 00:50:25;;;;;;;10.82;4.65;;;;;;;;;;5105888;28;20228;-78
2023/10/10 00:52:53;;;;;;;10.82;4.40;;;;;;;;;;5102787;28;20197;-80
2023/10/10 00:55:24;;;;;;;13.10;4.93;;;;;;;;;;5088065;28;20196;-79
2023/10/10 00:57:55;;;;;;;14.68;4.35;;;;;;;;;;5103470;28;20302;-79
2023/10/10 01:00:29;;;;;;;16.65;4.90;;;;;;;;;;5107841;28;20197;-80
2023/10/10 01:03:07;;;;;;;12.77;4.23;;;;;;;;;;5101446;27;20231;-77
2023/10/10 01:05:42;;;;;;;14.03;4.17;;;;;;;;;;5103398;28;20228;-80
2023/10/10 01:08:09;;;;;;;11.93;4.67;;;;;;;;;;5087954;28;20231;-80
2023/10/10 01:10:48;;;;;;;9.93;3.80;;;;;;;;;;5100290;27;20287;-77
2023/10/10 01:13:19;;;;;;;11.70;4.10;;;;;;;;;;5108127;27;20208;-78
2023/10/10 01:15:46;;;;;;;10.27;4.10;;;;;;;;;;5095870;28;20204;-79
2023/10/10 01:18:14;;;;;;;10.30;4.00;;;;;;;;;;5088521;28;20607;-79
2023/10/10 01:20:45;;;;;;;12.70;4.43;;;;;;;;;;5100233;28;20211;-79
2023/10/10 01:23:17;;;;;;;13.27;4.40;;;;;;;;;;5098472;28;20295;-79
2023/10/10 01:25:48;;;;;;;11.57;4.13;;;;;;;;;;5107629;27;20231;-77
2023/10/10 01:33:26;;;;;;;12.27;3.73;;;;;;;;;;5111158;27;20208;-79
2023/10/10 01:35:55;;;;;;;7.43;4.05;;;;;;;;;;5104782;28;20223;-79
2023/10/10 01:38:56;;;;;;;12.45;4.28;;;;;;;;;;5103375;27;20665;-78
2023/10/10 01:41:30;;;;;;;10.70;3.80;;;;;;;;;;5094692;27;20211;-79
2023/10/10 01:44:17;;;;;;;11.00;4.30;;;;;;;;;;5112334;27;20286;-78
2023/10/10 01:46:45;;;;;;;16.23;4.50;;;;;;;;;;5095315;27;20232;-80
2023/10/10 01:49:14;;;;;;;14.00;4.45;;;;;;;;;;5085025;28;20241;-79
2023/10/10 01:51:43;;;;;;;10.73;4.13;;;;;;;;;;5103041;28;20792;-79
2023/10/10 01:54:35;;;;;;;16.70;4.53;;;;;;;;;;5098352;28;20292;-79
2023/10/10 01:57:06;;;;;;;17.52;4.22;;;;;;;;;;5100074;28;20251;-78
2023/10/10 01:59:35;;;;;;;11.93;4.15;;;;;;;;;;5099120;28;20702;-78
2023/10/10 02:02:10;;;;;;;10.27;3.67;;;;;;;;;;5103074;28;20204;-79
2023/10/10 02:04:39;;;;;;;9.80;4.17;;;;;;;;;;5099853;28;20200;-77
2023/10/10 02:07:14;;;;;;;13.48;4.13;;;;;;;;;;5107074;28;20228;-80
2023/10/10 02:09:43;;;;;;;13.77;4.45;;;;;;;;;;5089469;27;20607;-79
2023/10/10 02:12:19;;;;;;;14.23;4.05;;;;;;;;;;5099219;28;20683;-78
2023/10/10 02:14:47;;;;;;;9.27;3.75;;;;;;;;;;5096750;28;20204;-77
2023/10/10 02:17:22;;;;;;;15.35;4.20;;;;;;;;;;5073442;28;20229;-79
2023/10/10 02:20:21;;;;;;;9.73;3.80;;;;;;;;;;5103706;28;20573;-78
2023/10/10 02:23:08;;;;;;;10.33;4.37;;;;;;;;;;5096384;28;20215;-79
2023/10/10 02:28:20;;;;;;;13.53;4.40;;;;;;;;;;5101213;28;20654;-78
2023/10/10 02:30:52;;;;;;;10.93;4.50;;;;;;;;;;5096759;28;20261;-79
2023/10/10 02:33:31;;;;;;;8.80;3.87;;;;;;;;;;5090379;28;20231;-79
2023/10/10 02:35:59;;;;;;;9.93;4.00;;;;;;;;;;5077464;28;20204;-79
2023/10/10 02:38:39;;;;;;;11.30;3.88;;;;;;;;;;5098614;28;20208;-79
2023/10/10 02:46:38;;;;;;;13.37;4.60;;;;;;;;;;5100061;28;20598;-80
2023/10/10 02:49:13;;;;;;;9.20;3.67;;;;;;;;;;5099526;28;23035;-79
2023/10/10 02:51:43;;;;;;;13.90;3.90;;;;;;;;;;5098952;28;20196;-78
2023/10/10 02:56:48;;;;;;;16.77;4.30;;;;;;;;;;5096995;28;20228;-78
2023/10/10 02:59:22;;;;;;;10.87;3.97;;;;;;;;;;5097353;28;20208;-80
2023/10/10 03:04:23;;;;;;;15.50;4.10;;;;;;;;;;5089910;28;20262;-79
2023/10/10 03:06:50;;;;;;;10.73;3.83;;;;;;;;;;5093473;28;20234;-78
2023/10/10 03:12:05;;;;;;;12.67;3.80;;;;;;;;;;5098662;27;20201;-79
2023/10/10 03:14:35;;;;;;;11.70;3.97;;;;;;;;;;5103226;27;20240;-78
2023/10/10 03:19:38;;;;;;;10.50;4.03;;;;;;;;;;5102683;28;20693;-78
2023/10/10 03:25:07;;;;;;;16.10;4.50;;;;;;;;;;5097598;27;20207;-80
2023/10/10 03:28:05;;;;;;;11.90;4.80;;;;;;;;;;5093913;27;20229;-79
2023/10/10 03:30:34;;;;;;;13.93;4.27;;;;;;;;;;5098203;27;20197;-79
2023/10/10 03:33:09;;;;;;;8.17;3.33;;;;;;;;;;5101799;28;20717;-79
2023/10/10 03:35:59;;;;;;;12.03;4.03;;;;;;;;;;5103712;27;20347;-78
2023/10/10 05:25:22;;;;;;;15.47;5.10;;;;;;;;;;5105456;27;20211;-77
2023/10/10 05:27:58;;;;;;;14.20;4.93;;;;;;;;;;5081163;27;20221;-79
2023/10/10 05:30:45;;;;;;;19.20;5.03;;;;;;;;;;5102168;28;20894;-79
2023/10/10 05:33:13;;;;;;;13.00;4.53;;;;;;;;;;5080213;28;20197;-79
2023/10/10 05:35:47;;;;;;;9.77;4.33;;;;;;;;;;5095747;27;20197;-80
2023/10/10 05:38:15;;;;;;;12.07;4.50;;;;;;;;;;5099264;27;20680;-79
2023/10/10 05:40:43;;;;;;;12.03;4.87;;;;;;;;;;5098751;27;20249;-80
2023/10/10 05:43:15;;;;;;;12.53;4.30;;;;;;;;;;5079314;28;20200;-76
2023/10/10 05:45:46;;;;;;;13.60;5.50;;;;;;;;;;5096439;28;20202;-79
2023/10/10 05:48:14;;;;;;;13.20;5.13;;;;;;;;;;5097445;28;20682;-79
2023/10/10 05:50:42;;;;;;;12.73;4.77;;;;;;;;;;5103803;27;20210;-80
2023/10/10 05:53:10;;;;;;;15.63;5.47;;;;;;;;;;5077698;28;20208;-79
2023/10/10 05:55:38;;;;;;;10.10;4.60;;;;;;;;;;5098822;28;20207;-79
2023/10/10 05:58:06;;;;;;;14.17;4.90;;;;;;;;;;5095917;28;20255;-80
2023/10/10 06:00:36;;;;;;;15.77;4.93;;;;;;;;;;5098423;28;20208;-79
2023/10/10 06:03:07;;;;;;;14.17;5.80;;;;;;;;;;5093408;27;20199;-78
2023/10/10 06:05:35;;;;;;;17.67;5.40;;;;;;;;;;5095159;28;20259;-79
2023/10/10 06:08:05;;;;;;;15.00;5.20;;;;;;;;;;5091893;27;20407;-79
2023/10/10 06:10:34;;;;;;;12.73;5.00;;;;;;;;;;5098825;28;20241;-78
2023/10/10 06:13:04;;;;;;;15.63;5.30;;;;;;;;;;5101154;28;20656;-79
2023/10/10 06:15:34;;;;;;;14.30;5.80;;;;;;;;;;5080096;28;20197;-79
2023/10/10 06:18:11;;;;;;;15.37;6.60;;;;;;;;;;5096309;28;20344;-77
2023/10/10 06:20:43;;;;;;;16.60;6.57;;;;;;;;;;5090845;28;20691;-79
2023/10/10 06:23:20;;;;;;;18.80;5.70;;;;;;;;;;5089348;28;20262;-80
2023/10/10 06:25:48;;;;;;;14.63;5.70;;;;;;;;;;5095353;28;20207;-77
2023/10/10 06:28:22;;;;;;;10.20;5.03;;;;;;;;;;5101372;28;20232;-79
2023/10/10 06:30:54;;;;;;;15.63;5.40;;;;;;;;;;5098434;28;20208;-78
2023/10/10 06:33:28;;;;;;;17.37;5.67;;;;;;;;;;5091232;28;20205;-80
2023/10/10 06:36:25;;;;;;;14.23;5.80;;;;;;;;;;5092977;28;20208;-79
2023/10/10 06:39:54;;;;;;;14.77;5.93;;;;;;;;;;5098994;28;20232;-80
2023/10/10 06:41:40;;;;;;;15.10;5.27;;;;;;;;;;5081789;28;20680;-77
2023/10/10 06:44:13;;;;;;;19.07;6.37;;;;;;;;;;5070475;28;20201;-78
2023/10/10 06:46:42;;;;;;;13.43;7.20;;;;;;;;;;5089476;28;20224;-77
2023/10/10 06:49:12;;;;;;;18.10;7.07;;;;;;;;;;5073370;28;20578;-78
2023/10/10 06:51:40;;;;;;;13.63;6.17;;;;;;;;;;5090475;28;20205;-77
2023/10/10 06:54:08;;;;;;;12.90;5.47;;;;;;;;;;5091154;28;20273;-77
2023/10/10 06:56:53;;;;;;;16.90;5.53;;;;;;;;;;5091593;28;20221;-77
2023/10/10 06:59:26;;;;;;;14.60;6.70;;;;;;;;;;5073976;28;20185;-76
2023/10/10 07:01:59;;;;;;;19.33;6.50;;;;;;;;;;5091516;28;20185;-77
2023/10/10 07:04:27;;;;;;;15.10;6.33;;;;;;;;;;5091656;28;20200;-75
2023/10/10 07:07:00;;;;;;;15.47;7.30;;;;;;;;;;5091102;28;20590;-76
2023/10/10 07:09:29;;;;;;;12.77;6.00;;;;;;;;;;5091788;28;20196;-77
2023/10/10 07:12:09;;;;;;;13.43;5.10;;;;;;;;;;5092518;28;20206;-76
2023/10/10 07:14:53;;;;;;;17.17;5.10;;;;;;;;;;5092639;28;20201;-79
2023/10/10 07:17:27;;;;;;;12.33;5.20;;;;;;;;;;5092342;28;20252;-78
2023/10/10 07:22:33;;;;;;;16.20;4.78;;;;;;;;;;5092131;28;20226;-76
2023/10/10 07:25:07;;;;;;;13.30;5.13;;;;;;;;;;5073924;28;20211;-78
2023/10/10 07:27:35;;;;;;;14.60;4.90;;;;;;;;;;5092725;28;20235;-78
2023/10/10 07:32:43;;;;;;;16.42;4.22;;;;;;;;;;5092544;28;20213;-77
2023/10/10 07:35:18;;;;;;;17.27;4.75;;;;;;;;;;5091607;28;20204;-75
2023/10/10 07:37:45;;;;;;;9.63;4.30;;;;;;;;;;5091264;28;20228;-76
2023/10/10 07:42:49;;;;;;;12.95;4.30;;;;;;;;;;5113012;28;20185;-78
2023/10/10 07:45:26;;;;;;;17.05;4.50;;;;;;;;;;5093404;28;20210;-76
2023/10/10 07:50:34;;;;;;;13.20;4.55;;;;;;;;;;5112422;28;20184;-76
2023/10/10 07:53:06;;;;;;;14.27;4.40;;;;;;;;;;5092699;28;20644;-77
2023/10/10 07:58:49;;;;;;;10.13;3.90;;;;;;;;;;5032201;28;20591;-76
2023/10/10 08:01:20;;;;;;;11.20;3.92;;;;;;;;;;5032706;28;20640;-78
2023/10/10 08:03:48;;;;;;;14.13;4.28;;;;;;;;;;5069728;28;20299;-78
2023/10/10 08:06:22;;;;;;;8.85;3.55;;;;;;;;;;5095919;28;20204;-77
2023/10/10 08:09:08;;;;;;;14.23;4.40;;;;;;;;;;5095560;28;20220;-76
2023/10/10 08:11:36;;;;;;;13.63;4.68;;;;;;;;;;5094279;28;20185;-77
2023/10/10 08:14:08;;;;;;;12.18;4.07;;;;;;;;;;5095093;28;20779;-78
2023/10/10 08:16:36;;;;;;;12.85;4.55;;;;;;;;;;5113078;28;20781;-77
2023/10/10 08:19:15;;;;;;;12.68;4.35;;;;;;;;;;5116845;28;20226;-78
2023/10/10 08:21:51;;;;;;;12.00;3.88;;;;;;;;;;5096258;28;20197;-77
2023/10/10 08:24:19;;;;;;;13.18;4.15;;;;;;;;;;5116112;27;20634;-76
2023/10/10 08:26:51;;;;;;;13.45;4.50;;;;;;;;;;5115316;28;20228;-76
2023/10/10 08:29:22;;;;;;;11.50;4.20;;;;;;;;;;5128905;27;20207;-77
2023/10/10 08:31:51;;;;;;;11.35;4.40;;;;;;;;;;5136046;27;20291;-76
2023/10/10 08:34:19;;;;;;;11.38;4.05;;;;;;;;;;5137188;27;20199;-76
2023/10/10 08:36:46;;;;;;;12.68;4.07;;;;;;;;;;5136132;27;20754;-76
2023/10/10 08:41:44;;;;;;;9.98;3.78;;;;;;;;;;5135457;27;20192;-78
2023/10/10 08:44:14;;;;;;;17.65;4.05;;;;;;;;;;5136400;27;20203;-79
2023/10/10 08:46:48;;;;;;;10.35;3.60;;;;;;;;;;5136252;27;20223;-77
2023/10/10 08:49:17;;;;;;;13.85;3.90;;;;;;;;;;5135312;27;20617;-78
2023/10/10 08:51:45;;;;;;;12.68;4.07;;;;;;;;;;5136824;27;20287;-78
2023/10/10 08:54:47;;;;;;;17.67;4.28;;;;;;;;;;5135873;27;20662;-77
2023/10/10 08:57:25;;;;;;;12.73;4.18;;;;;;;;;;5080091;27;20223;-77
2023/10/10 08:59:53;;;;;;;14.25;4.00;;;;;;;;;;5115472;27;20193;-76
2023/10/10 09:02:20;;;;;;;12.98;4.22;;;;;;;;;;5096576;28;20196;-77
2023/10/10 09:04:50;;;;;;;12.10;3.85;;;;;;;;;;5115371;28;20204;-78
2023/10/10 09:07:26;;;;;;;10.40;3.67;;;;;;;;;;5097123;28;20734;-78
2023/10/10 09:10:06;;;;;;;16.58;4.30;;;;;;;;;;5116161;28;20190;-78
2023/10/10 09:12:52;;;;;;;17.83;4.50;;;;;;;;;;5114727;28;20192;-77
2023/10/10 09:15:20;;;;;;;12.65;3.35;;;;;;;;;;5115292;28;20187;-79
2023/10/10 09:17:48;;;;;;;11.10;3.80;;;;;;;;;;5114245;28;20284;-76
2023/10/10 09:20:28;;;;;;;17.58;4.03;;;;;;;;;;5113919;28;20709;-76
2023/10/10 09:23:15;;;;;;;11.65;4.15;;;;;;;;;;5115401;28;20219;-77
2023/10/10 09:25:48;;;;;;;10.80;4.50;;;;;;;;;;5101490;28;20192;-75
2023/10/10 09:28:19;;;;;;;17.38;3.92;;;;;;;;;;5114762;28;20253;-78
2023/10/10 09:30:50;;;;;;;18.65;3.88;;;;;;;;;;5115082;28;20211;-78
2023/10/10 09:35:54;;;;;;;12.73;4.00;;;;;;;;;;5114517;28;20199;-77
2023/10/10 09:38:22;;;;;;;15.43;4.30;;;;;;;;;;5114975;28;20220;-78
2023/10/10 09:40:59;;;;;;;14.73;3.88;;;;;;;;;;5113836;28;20200;-77
2023/10/10 09:43:35;;;;;;;10.90;3.65;;;;;;;;;;5113939;28;20276;-77
2023/10/10 09:46:24;;;;;;;12.25;4.20;;;;;;;;;;5114234;28;20194;-76
2023/10/10 09:54:18;;;;;;;13.52;3.55;;;;;;;;;;5113889;28;20647;-76
2023/10/10 09:56:50;;;;;;;15.02;4.00;;;;;;;;;;5112963;28;20220;-76
2023/10/10 09:59:20;;;;;;;12.77;4.25;;;;;;;;;;5113252;28;20674;-76
2023/10/10 10:01:48;;;;;;;14.23;4.80;;;;;;;;;;5113598;28;20208;-76
2023/10/10 10:04:25;;;;;;;12.45;4.18;;;;;;;;;;5113641;28;20216;-76
2023/10/10 10:07:12;;;;;;;10.38;3.78;;;;;;;;;;5107223;27;20220;-78
2023/10/10 10:09:51;;;;;;;12.20;4.20;;;;;;;;;;5097998;28;20591;-78
2023/10/10 10:12:31;;;;;;;16.23;3.92;;;;;;;;;;5102170;28;20204;-78
2023/10/10 10:15:12;;;;;;;12.65;4.20;;;;;;;;;;5087177;28;20617;-76
2023/10/10 10:17:57;;;;;;;11.68;3.72;;;;;;;;;;5101455;27;20215;-76
2023/10/10 10:20:42;;;;;;;10.63;3.55;;;;;;;;;;5107474;28;20286;-78
2023/10/10 10:23:17;;;;;;;11.48;3.95;;;;;;;;;;5113334;28;20246;-77
2023/10/10 10:25:52;;;;;;;13.57;4.05;;;;;;;;;;5113595;28;20250;-76
2023/10/10 10:28:28;;;;;;;11.32;3.97;;;;;;;;;;5113093;28;20223;-76
2023/10/10 10:30:55;;;;;;;10.80;3.80;;;;;;;;;;5112210;28;20222;-77
2023/10/10 10:33:24;;;;;;;11.23;3.90;;;;;;;;;;5095686;28;20254;-77
2023/10/10 10:35:56;;;;;;;11.82;4.78;;;;;;;;;;5114314;28;20200;-79
2023/10/10 10:38:24;;;;;;;12.05;4.13;;;;;;;;;;5113340;28;20250;-78
2023/10/10 10:41:07;;;;;;;12.15;4.82;;;;;;;;;;5112597;28;20415;-75
2023/10/10 10:43:42;;;;;;;10.48;4.13;;;;;;;;;;5113421;28;20609;-77
2023/10/10 10:46:14;;;;;;;24.90;10.18;;;;;;;;;;5112360;28;20191;-75
2023/10/10 10:48:48;;;;;;;14.23;4.03;;;;;;;;;;5114920;28;20227;-79
2023/10/10 10:51:22;;;;;;;10.27;4.05;;;;;;;;;;5113890;28;20499;-77
2023/10/10 10:53:50;;;;;;;9.70;3.75;;;;;;;;;;5113455;28;20241;-77
2023/10/10 11:01:30;;;;;;;8.02;3.40;;;;;;;;;;5113916;28;20196;-76
2023/10/10 11:03:58;;;;;;;9.40;3.35;;;;;;;;;;5113727;28;20571;-76
2023/10/10 11:06:25;;;;;;;12.65;3.90;;;;;;;;;;5115290;28;20228;-79
2023/10/10 11:08:52;;;;;;;13.38;3.65;;;;;;;;;;5113738;28;20220;-77
2023/10/10 11:11:49;;;;;;;10.10;4.13;;;;;;;;;;5112547;28;20193;-77
2023/10/10 11:16:45;;;;;;;11.07;3.97;;;;;;;;;;5112871;28;20224;-77
2023/10/10 11:21:48;;;;;;;10.48;3.85;;;;;;;;;;5111989;28;20204;-80
2023/10/10 11:24:25;;;;;;;11.68;4.13;;;;;;;;;;5129270;28;20223;-78
2023/10/10 11:29:45;;;;;;;9.85;4.10;;;;;;;;;;5135009;27;20208;-78
2023/10/10 11:32:14;;;;;;;10.40;3.92;;;;;;;;;;5137600;27;20186;-78
2023/10/10 11:34:44;;;;;;;7.13;4.03;;;;;;;;;;5137669;27;20576;-77
2023/10/10 11:37:20;;;;;;;10.30;3.72;;;;;;;;;;5119782;27;20219;-76
2023/10/10 11:39:57;;;;;;;12.02;4.03;;;;;;;;;;5137366;27;20194;-77
2023/10/10 11:42:28;;;;;;;10.13;4.10;;;;;;;;;;5121139;27;20210;-78
2023/10/10 11:45:02;;;;;;;11.90;3.85;;;;;;;;;;5120248;27;20215;-77
2023/10/10 11:47:30;;;;;;;8.95;3.95;;;;;;;;;;5118306;27;20227;-78
2023/10/10 11:50:00;;;;;;;10.18;3.95;;;;;;;;;;5137609;27;20294;-77
2023/10/10 11:52:28;;;;;;;9.70;3.75;;;;;;;;;;5138293;27;20215;-78
2023/10/10 11:55:00;;;;;;;12.68;4.43;;;;;;;;;;5139566;27;20286;-78
2023/10/10 11:57:33;;;;;;;9.75;4.00;;;;;;;;;;5140151;27;20247;-78
2023/10/10 12:00:07;;;;;;;11.10;4.47;;;;;;;;;;5137161;27;20195;-78
2023/10/10 12:02:55;;;;;;;11.60;7.40;;;;;;;;;;5132148;27;20276;-79
2023/10/10 12:08:01;;;;;;;9.85;4.32;;;;;;;;;;5116803;27;20223;-77
2023/10/10 12:10:47;;;;;;;11.75;4.28;;;;;;;;;;5137866;27;20188;-79
2023/10/10 12:13:36;;;;;;;9.88;4.53;;;;;;;;;;5107597;28;20188;-79
2023/10/10 12:16:12;;;;;;;10.55;3.75;;;;;;;;;;5116618;28;20265;-76
2023/10/10 12:18:44;;;;;;;15.05;6.13;;;;;;;;;;5098479;28;20192;-78
2023/10/10 12:21:19;;;;;;;12.48;4.10;;;;;;;;;;5098239;28;20224;-76
2023/10/10 12:23:54;;;;;;;10.95;4.25;;;;;;;;;;5113894;28;20233;-81
2023/10/10 12:26:29;;;;;;;10.43;4.20;;;;;;;;;;5104781;27;20229;-80
2023/10/10 12:28:57;;;;;;;12.20;3.63;;;;;;;;;;5106432;28;20228;-80
2023/10/10 12:31:24;;;;;;;13.95;6.75;;;;;;;;;;5104311;28;20197;-81
2023/10/10 12:33:55;;;;;;;11.75;3.92;;;;;;;;;;5088177;28;20283;-80
2023/10/10 12:36:23;;;;;;;11.65;4.45;;;;;;;;;;5086486;28;20215;-79
2023/10/10 12:38:50;;;;;;;9.65;4.00;;;;;;;;;;5106690;27;20282;-81
2023/10/10 12:41:20;;;;;;;9.65;4.35;;;;;;;;;;5097090;28;20204;-81
2023/10/10 12:43:51;;;;;;;8.65;3.90;;;;;;;;;;5108088;28;20204;-81
2023/10/10 12:46:22;;;;;;;6.70;3.78;;;;;;;;;;5105190;28;20221;-80
2023/10/10 12:48:52;;;;;;;6.22;3.80;;;;;;;;;;5110463;27;20274;-79
2023/10/10 12:51:23;;;;;;;8.07;4.20;;;;;;;;;;5096756;27;20771;-79
2023/10/10 12:54:05;;;;;;;7.88;4.20;;;;;;;;;;5080665;28;20279;-80
2023/10/10 12:56:39;;;;;;;8.23;3.70;;;;;;;;;;5103985;28;20220;-81
2023/10/10 12:59:07;;;;;;;8.48;3.72;;;;;;;;;;5086401;28;20231;-80
2023/10/10 13:01:55;;;;;;;4.80;3.38;;;;;;;;;;5103484;27;20201;-79
2023/10/10 13:04:29;;;;;;;10.18;3.67;;;;;;;;;;5101933;28;20205;-80
2023/10/10 13:07:02;;;;;;;7.65;4.15;;;;;;;;;;5105430;28;20224;-81
2023/10/10 13:09:32;;;;;;;7.55;5.05;;;;;;;;;;5102620;28;20228;-80
2023/10/10 13:12:02;;;;;;;9.90;5.88;;;;;;;;;;5083911;28;20288;-80
2023/10/10 13:14:32;;;;;;;6.68;3.75;;;;;;;;;;5103848;28;20237;-79
2023/10/10 13:19:48;;;;;;;11.45;6.20;;;;;;;;;;5106650;28;20199;-79
2023/10/10 13:22:20;;;;;;;9.10;4.55;;;;;;;;;;5104835;28;20266;-80
2023/10/10 13:24:49;;;;;;;7.00;3.97;;;;;;;;;;5098925;27;20201;-80
2023/10/10 13:27:17;;;;;;;8.82;3.90;;;;;;;;;;5085327;28;20251;-80
2023/10/10 13:29:45;;;;;;;6.20;3.40;;;;;;;;;;5104517;27;20231;-80
2023/10/10 13:32:12;;;;;;;6.55;4.03;;;;;;;;;;5098392;28;20200;-79
2023/10/10 13:34:40;;;;;;;6.70;3.85;;;;;;;;;;5102863;27;20212;-79
2023/10/10 13:37:07;;;;;;;5.85;3.88;;;;;;;;;;5105742;27;20224;-81
2023/10/10 13:39:48;;;;;;;5.05;3.35;;;;;;;;;;5098013;28;20208;-81
2023/10/10 13:42:17;;;;;;;4.57;3.10;;;;;;;;;;5108384;28;20631;-81
2023/10/10 13:44:45;;;;;;;6.53;3.58;;;;;;;;;;5085147;28;20739;-80
2023/10/10 13:47:13;;;;;;;7.80;3.90;;;;;;;;;;5100490;28;20234;-80
2023/10/10 13:49:58;;;;;;;8.68;4.47;;;;;;;;;;5110066;27;20789;-79
2023/10/10 13:52:25;;;;;;;6.80;3.97;;;;;;;;;;5096873;28;20204;-79
2023/10/10 13:54:52;;;;;;;7.07;4.25;;;;;;;;;;5095443;28;20201;-80
2023/10/10 13:57:20;;;;;;;7.43;3.75;;;;;;;;;;5103960;28;20227;-79
2023/10/10 13:59:49;;;;;;;6.20;3.83;;;;;;;;;;5112676;27;20257;-80
2023/10/10 14:02:16;;;;;;;5.80;3.50;;;;;;;;;;5096857;28;20584;-80
2023/10/10 14:04:48;;;;;;;8.80;4.70;;;;;;;;;;5103921;28;20212;-80
2023/10/10 14:07:16;;;;;;;5.43;3.35;;;;;;;;;;5105479;28;20293;-79
2023/10/10 14:09:49;;;;;;;6.70;3.67;;;;;;;;;;5078618;28;20280;-80
2023/10/10 14:12:22;;;;;;;8.27;4.07;;;;;;;;;;5095403;27;20839;-78
2023/10/10 14:14:53;;;;;;;8.05;5.40;;;;;;;;;;5101280;27;20204;-78
2023/10/10 14:17:20;;;;;;;7.72;3.65;;;;;;;;;;5096285;28;20223;-81
2023/10/10 14:19:52;;;;;;;6.20;3.42;;;;;;;;;;5100369;28;20287;-78
2023/10/10 14:22:23;;;;;;;7.72;4.30;;;;;;;;;;5093741;28;20211;-76
2023/10/10 14:24:53;;;;;;;6.45;3.25;;;;;;;;;;5075321;28;20618;-78
2023/10/10 14:27:22;;;;;;;9.18;4.18;;;;;;;;;;5073004;28;20221;-78
2023/10/10 14:29:50;;;;;;;9.98;4.10;;;;;;;;;;5066252;28;20222;-79
2023/10/10 14:32:17;;;;;;;10.30;4.50;;;;;;;;;;5077909;28;20225;-78
2023/10/10 14:35:04;;;;;;;9.35;4.43;;;;;;;;;;5077279;28;20204;-78
2023/10/10 14:37:32;;;;;;;8.23;3.92;;;;;;;;;;5085889;28;20241;-79
2023/10/10 14:40:19;;;;;;;11.88;3.72;;;;;;;;;;5083334;28;20225;-78
2023/10/10 14:42:46;;;;;;;7.55;4.05;;;;;;;;;;5084395;28;20277;-80
2023/10/10 14:45:14;;;;;;;7.28;3.53;;;;;;;;;;5090049;28;20238;-78
2023/10/10 14:47:43;;;;;;;12.93;5.20;;;;;;;;;;5083303;28;20570;-75
2023/10/10 14:50:12;;;;;;;23.63;12.20;;;;;;;;;;5091509;28;20231;-79
2023/10/10 14:52:47;;;;;;;11.05;5.35;;;;;;;;;;5096266;28;20205;-77
2023/10/10 14:55:24;;;;;;;7.20;4.13;;;;;;;;;;5083083;28;20322;-77
2023/10/10 14:57:55;;;;;;;14.88;8.00;;;;;;;;;;5088783;28;20229;-78
2023/10/10 15:00:24;;;;;;;10.77;5.30;;;;;;;;;;5071287;28;20209;-79
2023/10/10 15:02:53;;;;;;;10.98;6.28;;;;;;;;;;5085585;28;20283;-75
2023/10/10 15:05:23;;;;;;;26.98;13.50;;;;;;;;;;5080904;28;20201;-77
2023/10/10 15:07:52;;;;;;;11.23;3.88;;;;;;;;;;5092858;28;20224;-76
2023/10/10 15:10:23;;;;;;;10.60;4.93;;;;;;;;;;5086776;28;20252;-77
2023/10/10 15:12:50;;;;;;;19.25;8.38;;;;;;;;;;5089883;28;20200;-78
2023/10/10 15:15:17;;;;;;;9.45;4.40;;;;;;;;;;5066112;28;20205;-79
2023/10/10 15:17:45;;;;;;;10.93;4.57;;;;;;;;;;5092364;28;20764;-77
2023/10/10 15:20:14;;;;;;;10.77;5.32;;;;;;;;;;5058845;28;20237;-79
2023/10/10 15:22:42;;;;;;;8.73;5.35;;;;;;;;;;5073631;28;20278;-76
2023/10/10 15:25:10;;;;;;;13.65;4.38;;;;;;;;;;5097848;28;20200;-75
2023/10/10 15:27:41;;;;;;;8.30;4.65;;;;;;;;;;5076963;28;20732;-78
2023/10/10 15:30:09;;;;;;;8.95;3.95;;;;;;;;;;5084800;28;20244;-77
2023/10/10 15:32:46;;;;;;;7.40;3.90;;;;;;;;;;5099804;27;20272;-77
2023/10/10 15:35:16;;;;;;;10.68;3.60;;;;;;;;;;5092157;28;20201;-78
2023/10/10 15:37:44;;;;;;;9.65;4.18;;;;;;;;;;5077092;28;20212;-79
2023/10/10 15:40:13;;;;;;;11.68;4.13;;;;;;;;;;5087784;28;20239;-78
2023/10/10 15:42:40;;;;;;;11.30;4.40;;;;;;;;;;5086909;28;20307;-77
2023/10/10 15:45:08;;;;;;;10.57;4.32;;;;;;;;;;5086441;27;20207;-78
2023/10/10 15:47:35;;;;;;;8.48;4.85;;;;;;;;;;5093843;28;20274;-78
2023/10/10 15:50:03;;;;;;;9.70;4.40;;;;;;;;;;5098147;27;20224;-79
2023/10/10 15:52:33;;;;;;;10.20;6.18;;;;;;;;;;5092763;28;20224;-77
2023/10/10 15:55:05;;;;;;;8.32;4.90;;;;;;;;;;5078316;28;20200;-79
2023/10/10 15:57:35;;;;;;;10.57;5.78;;;;;;;;;;5081601;28;20228;-78
2023/10/10 16:00:10;;;;;;;12.05;6.72;;;;;;;;;;5099005;28;20586;-79
2023/10/10 16:02:39;;;;;;;7.80;3.90;;;;;;;;;;5090965;27;20234;-79
2023/10/10 16:05:07;;;;;;;8.18;3.75;;;;;;;;;;5093142;28;20253;-79
2023/10/10 16:07:34;;;;;;;7.38;3.78;;;;;;;;;;5096460;28;20236;-78
2023/10/10 16:10:03;;;;;;;9.98;4.28;;;;;;;;;;5086788;28;20224;-77
2023/10/10 16:12:30;;;;;;;8.05;3.55;;;;;;;;;;5098511;27;20197;-78
2023/10/10 16:15:00;;;;;;;7.95;3.80;;;;;;;;;;5092141;27;20639;-79
2023/10/10 16:17:28;;;;;;;7.10;3.65;;;;;;;;;;5110433;27;20768;-80
2023/10/10 16:19:56;;;;;;;10.95;3.95;;;;;;;;;;5097882;27;20208;-79
2023/10/10 16:22:23;;;;;;;9.48;3.80;;;;;;;;;;5091290;27;20211;-78
2023/10/10 16:24:52;;;;;;;7.93;3.58;;;;;;;;;;5090801;28;20664;-79
2023/10/10 16:27:21;;;;;;;12.77;3.90;;;;;;;;;;5076801;28;20231;-78
2023/10/10 16:29:55;;;;;;;6.40;4.00;;;;;;;;;;5106138;27;20354;-77
2023/10/10 16:32:22;;;;;;;8.05;3.65;;;;;;;;;;5100990;27;20235;-79
2023/10/10 16:34:50;;;;;;;7.45;3.80;;;;;;;;;;5102995;27;20722;-79
2023/10/10 16:37:20;;;;;;;8.10;3.80;;;;;;;;;;5101066;28;21865;-79
2023/10/10 16:39:48;;;;;;;5.75;3.17;;;;;;;;;;5103396;27;20273;-80
2023/10/10 16:42:19;;;;;;;7.40;3.65;;;;;;;;;;5100522;27;20212;-79
2023/10/10 16:44:47;;;;;;;6.57;3.70;;;;;;;;;;5095416;27;20197;-78
2023/10/10 16:47:19;;;;;;;5.30;3.25;;;;;;;;;;5097392;27;20220;-79
2023/10/10 16:49:49;;;;;;;8.20;3.72;;;;;;;;;;5088360;28;20305;-80
2023/10/10 16:52:17;;;;;;;6.78;2.90;;;;;;;;;;5105467;27;20265;-80
2023/10/10 16:54:51;;;;;;;11.63;3.97;;;;;;;;;;5087598;27;20599;-79
2023/10/10 16:57:25;;;;;;;5.78;3.60;;;;;;;;;;5098670;27;20220;-78
2023/10/10 16:59:55;;;;;;;8.18;3.70;;;;;;;;;;5097164;28;20201;-78
2023/10/10 17:02:27;;;;;;;6.18;3.33;;;;;;;;;;5095065;27;20216;-78
2023/10/10 17:04:55;;;;;;;8.73;3.38;;;;;;;;;;5097291;27;20200;-80
2023/10/10 17:07:26;;;;;;;6.78;3.30;;;;;;;;;;5085452;28;20233;-78
2023/10/10 17:09:53;;;;;;;6.82;3.63;;;;;;;;;;5092119;27;20228;-78
2023/10/10 17:12:20;;;;;;;7.13;3.42;;;;;;;;;;5099704;27;20209;-79
2023/10/10 17:14:48;;;;;;;7.07;3.83;;;;;;;;;;5103457;27;20659;-80
2023/10/10 17:17:15;;;;;;;7.22;3.38;;;;;;;;;;5114079;27;20255;-79
2023/10/10 17:19:42;;;;;;;7.65;3.80;;;;;;;;;;5091385;28;20249;-78
2023/10/10 17:22:09;;;;;;;9.35;3.95;;;;;;;;;;5109517;27;20204;-78
2023/10/10 17:24:37;;;;;;;8.00;3.97;;;;;;;;;;5109660;28;20216;-78
2023/10/10 17:27:06;;;;;;;6.32;3.83;;;;;;;;;;5103188;28;20269;-79
2023/10/10 17:29:35;;;;;;;22.77;13.82;;;;;;;;;;5112091;27;20208;-80
2023/10/10 17:32:05;;;;;;;38.60;23.52;;;;;;;;;;5085956;28;20246;-79
2023/10/10 17:34:34;;;;;;;18.73;11.40;;;;;;;;;;5100327;28;20680;-80
2023/10/10 17:37:08;;;;;;;8.63;5.18;;;;;;;;;;5104297;28;20250;-80
2023/10/10 17:39:36;;;;;;;8.57;4.72;;;;;;;;;;5107442;28;20192;-76
2023/10/10 17:42:06;;;;;;;6.45;3.85;;;;;;;;;;5094076;28;20207;-77
2023/10/10 17:44:37;;;;;;;15.15;6.55;;;;;;;;;;5082343;28;20196;-77
2023/10/10 17:47:05;;;;;;;12.27;6.15;;;;;;;;;;5087283;28;20220;-80
2023/10/10 17:49:32;;;;;;;8.35;5.20;;;;;;;;;;5096826;27;20197;-76
2023/10/10 17:52:00;;;;;;;6.38;4.88;;;;;;;;;;5076772;28;20201;-80
2023/10/10 17:54:28;;;;;;;9.75;5.07;;;;;;;;;;5104863;27;20204;-81
2023/10/10 17:56:56;;;;;;;10.18;5.05;;;;;;;;;;5102023;28;20676;-80
2023/10/10 17:59:23;;;;;;;16.15;5.72;;;;;;;;;;5105882;27;20200;-80
2023/10/10 18:01:53;;;;;;;17.48;6.93;;;;;;;;;;5092707;28;20664;-80